Time;durP1;ratioP1;P1;durP2;ratioP2;P2;SDS_P1;SDS_P2;PMS_P1;PMS_P2;Temp;Humidity;BMP_temperature;BMP_pressure;BME280_temperature;BME280_humidity;BME280_pressure;Samples;Min_cycle;Max_cycle;Signal;HPM_P1;HPM_P2
2022/01/23 00:00:27;;;;;;;;;;;5.10;99.90;;;4.70;100.00;102324.63;4948773;28;19973;-75
2022/01/23 00:03:00;;;;;;;;;;;5.10;99.90;;;4.73;100.00;102316.91;4977226;28;19930;-75
2022/01/23 00:05:33;;;;;;;;;;;5.20;99.90;;;4.74;100.00;102320.41;4977901;28;20669;-77
2022/01/23 00:08:01;;;;;;;;;;;5.20;99.90;;;4.68;100.00;102316.78;4962988;28;20028;-76
2022/01/23 00:10:28;;;;;;;;;;;5.20;99.90;;;4.68;100.00;102322.00;4971479;28;19935;-75
2022/01/23 00:13:07;;;;;;;;;;;6.40;99.90;;;4.70;100.00;102311.59;4931076;29;20387;-76
2022/01/23 00:18:20;;;;;;;;;;;6.10;99.90;;;4.72;100.00;102320.34;4947909;29;19984;-76
2022/01/23 00:20:48;;;;;;;;;;;6.50;99.90;;;4.69;100.00;102320.25;4947377;28;19931;-75
2022/01/23 00:31:40;;;;;;;;;;;6.60;99.90;;;4.73;100.00;102321.25;4947621;28;20494;-76
2022/01/23 00:34:07;;;;;;;;;;;5.90;99.90;;;4.67;100.00;102320.19;4946611;29;19930;-75
2022/01/23 00:36:37;;;;;;;;;;;5.20;99.90;;;4.67;100.00;102322.81;4931545;29;19937;-76
2022/01/23 00:39:04;;;;;;;;;;;2.80;99.90;;;4.67;100.00;102334.97;4947330;29;19966;-75
2022/01/23 00:41:31;;;;;;;;;;;5.20;99.90;;;4.71;100.00;102320.31;4948192;28;20411;-75
2022/01/23 00:43:59;;;;;;;;;;;5.60;99.90;;;4.70;100.00;102322.03;4930215;29;19926;-75
2022/01/23 00:46:37;;;;;;;;;;;5.90;99.90;;;4.75;100.00;102325.66;4947364;29;19944;-75
2022/01/23 00:51:37;;;;;;;;;;;7.00;99.90;;;4.73;100.00;102323.88;4947244;28;19930;-76
2022/01/23 00:54:10;;;;;;;;;;;5.60;99.90;;;4.73;100.00;102310.81;4946164;29;19931;-76
2022/01/23 00:56:37;;;;;;;;;;;5.10;99.90;;;4.75;100.00;102319.56;4947134;29;19936;-76
2022/01/23 00:59:05;;;;;;;;;;;5.60;99.90;;;4.76;100.00;102319.63;4931273;29;20025;-76
2022/01/23 01:01:32;;;;;;;;;;;5.80;99.90;;;4.71;100.00;102312.50;4930948;29;19936;-75
2022/01/23 01:03:59;;;;;;;;;;;6.80;99.90;;;4.76;100.00;102311.81;4945908;29;19930;-76
2022/01/23 01:06:27;;;;;;;;;;;5.40;99.90;;;4.72;100.00;102311.66;4931203;29;20306;-76
2022/01/23 01:09:00;;;;;;;;;;;3.80;99.90;;;4.73;100.00;102311.69;4931156;29;19926;-76
2022/01/23 01:17:06;;;;;;;;;;;5.20;99.90;;;4.76;100.00;102308.31;4927535;29;19985;-76
2022/01/23 01:33:33;;;;;;;;;;;5.40;99.90;;;4.74;100.00;102321.28;4925738;29;20402;-76
2022/01/23 01:36:17;;;;;;;;;;;5.20;99.90;;;4.73;100.00;102329.94;4913603;29;19931;-76
2022/01/23 01:38:44;;;;;;;;;;;5.20;99.90;;;4.76;100.00;102327.47;4914322;29;19985;-76
2022/01/23 01:41:14;;;;;;;;;;;5.20;99.90;;;4.74;100.00;102329.09;4911673;29;19957;-76
2022/01/23 01:43:41;;;;;;;;;;;5.20;99.90;;;4.71;100.00;102325.53;4926060;29;19933;-76
2022/01/23 01:46:09;;;;;;;;;;;6.40;99.90;;;4.73;100.00;102316.91;4927371;29;19988;-76
2022/01/23 01:48:51;;;;;;;;;;;5.70;99.90;;;4.73;100.00;102313.44;4927055;29;19941;-76
2022/01/23 01:51:18;;;;;;;;;;;6.30;99.90;;;4.76;100.00;102327.47;4896085;29;20376;-76
2022/01/23 01:54:02;;;;;;;;;;;7.30;99.90;;;4.75;100.00;102315.22;4911382;29;20370;-76
2022/01/23 01:56:39;;;;;;;;;;;5.20;99.90;;;4.75;100.00;102314.34;4912568;29;19935;-76
2022/01/23 02:10:36;;;;;;;;;;;5.70;99.90;;;4.66;100.00;102299.31;4926887;29;19930;-75
2022/01/23 02:16:03;;;;;;;;;;;5.70;99.90;;;4.71;100.00;102294.25;4929272;29;19930;-75
2022/01/23 02:25:01;;;;;;;;;;;5.60;99.90;;;4.73;100.00;102283.00;4932708;29;19966;-75
2022/01/23 02:52:45;;;;;;;;;;;5.00;99.90;;;4.71;100.00;102286.44;4926285;29;19931;-75
2022/01/23 02:55:27;;;;;;;;;;;5.10;99.90;;;4.73;100.00;102303.00;4927309;29;19938;-75
2022/01/23 02:58:02;;;;;;;;;;;5.10;99.90;;;4.74;100.00;102296.94;4914106;29;20413;-75
2022/01/23 03:00:47;;;;;;;;;;;5.70;99.90;;;4.72;100.00;102304.72;4910983;29;19930;-75
2022/01/23 03:03:47;;;;;;;;;;;6.80;99.90;;;4.69;100.00;102304.63;4927736;28;19931;-75
2022/01/23 03:06:39;;;;;;;;;;;5.20;99.90;;;4.73;100.00;102303.88;4927739;29;20034;-76
2022/01/23 03:28:17;;;;;;;;;;;6.00;99.90;;;4.73;100.00;102314.31;4949444;28;19926;-75
2022/01/23 03:30:34;;;;;;;;;;;5.70;99.90;;;4.75;100.00;102314.34;4958669;28;19930;-76
2022/01/23 03:33:02;;;;;;;;;;;5.10;99.90;;;4.77;100.00;102305.75;4952210;28;19941;-74
2022/01/23 03:35:29;;;;;;;;;;;5.20;99.90;;;4.74;100.00;102310.84;4947252;29;19926;-75
2022/01/23 03:37:56;;;;;;;;;;;6.00;99.90;;;4.73;100.00;102316.03;4964194;28;20021;-74
2022/01/23 03:40:26;;;;;;;;;;;5.10;99.90;;;4.76;100.00;102322.25;4964144;28;19938;-74
2022/01/23 03:43:07;;;;;;;;;;;5.10;99.90;;;4.76;100.00;102318.75;4948952;28;19930;-75
2022/01/23 03:50:54;;;;;;;;;;;5.20;99.90;;;4.78;100.00;102322.28;4947814;28;20448;-75
2022/01/23 03:53:34;;;;;;;;;;;6.60;99.90;;;4.77;100.00;102313.59;4946688;29;19930;-75
2022/01/23 03:56:01;;;;;;;;;;;5.50;99.90;;;4.78;100.00;102314.44;4947552;28;19931;-76
2022/01/23 03:58:30;;;;;;;;;;;5.20;99.90;;;4.81;100.00;102314.53;4946773;29;20004;-75
2022/01/23 04:00:57;;;;;;;;;;;5.30;99.90;;;4.80;100.00;102311.06;4963417;28;19969;-75
2022/01/23 04:03:27;;;;;;;;;;;6.70;99.90;;;4.79;100.00;102313.59;4946544;28;20047;-75
2022/01/23 04:05:53;;;;;;;;;;;5.20;99.90;;;4.79;100.00;102317.13;4947734;28;19933;-75
2022/01/23 04:08:21;;;;;;;;;;;5.20;99.90;;;4.80;100.00;102325.81;4947802;28;19961;-74
2022/01/23 04:10:48;;;;;;;;;;;5.30;99.90;;;4.81;100.00;102325.88;4931965;29;19937;-74
2022/01/23 04:15:55;;;;;;;;;;;5.10;99.90;;;4.76;100.00;102310.91;4925652;29;19927;-75
2022/01/23 04:45:37;;;;;;;;;;;6.10;99.90;;;4.71;100.00;102300.34;4946476;28;19930;-75
2022/01/23 04:59:45;;;;;;;;;;;5.20;99.90;;;4.65;100.00;102293.19;4951020;28;19931;-75
2022/01/23 05:05:01;;;;;;;;;;;5.10;99.90;;;4.72;100.00;102314.28;4960061;28;19930;-75
2022/01/23 05:07:47;;;;;;;;;;;6.40;99.90;;;4.74;100.00;102317.81;4947554;29;19933;-75
2022/01/23 05:10:14;;;;;;;;;;;5.10;99.90;;;4.72;100.00;102320.34;4947263;29;19930;-75
2022/01/23 05:12:47;;;;;;;;;;;5.10;99.90;;;4.71;100.00;102328.16;4945865;28;20016;-75
2022/01/23 05:15:15;;;;;;;;;;;5.10;99.90;;;4.72;100.00;102322.09;4946539;28;19927;-76
2022/01/23 05:17:45;;;;;;;;;;;5.10;99.90;;;4.71;100.00;102315.97;4946880;28;19980;-75
2022/01/23 05:20:16;;;;;;;;;;;5.90;99.90;;;4.75;100.00;102319.56;4946387;29;20335;-76
2022/01/23 05:22:49;;;;;;;;;;;5.40;99.90;;;4.74;100.00;102328.25;4946250;29;19937;-75
2022/01/23 05:25:26;;;;;;;;;;;7.10;99.90;;;4.71;100.00;102320.31;4946817;28;19937;-75
2022/01/23 05:27:54;;;;;;;;;;;5.10;99.90;;;4.72;100.00;102324.69;4942457;29;19931;-75
2022/01/23 05:30:22;;;;;;;;;;;5.10;99.90;;;4.70;100.00;102324.63;4928912;29;19930;-75
2022/01/23 05:32:51;;;;;;;;;;;5.10;99.90;;;4.73;100.00;102326.47;4916973;29;20454;-75
2022/01/23 05:35:21;;;;;;;;;;;5.50;99.90;;;4.70;100.00;102316.81;4930591;29;20021;-76
2022/01/23 05:37:49;;;;;;;;;;;5.20;99.90;;;4.71;100.00;102321.19;4931659;29;20345;-75
2022/01/23 05:40:20;;;;;;;;;;;5.50;99.90;;;4.71;100.00;102323.81;4931289;28;19934;-75
2022/01/23 05:42:50;;;;;;;;;;;6.70;99.90;;;4.66;100.00;102326.25;4930941;29;19931;-75
2022/01/23 05:45:19;;;;;;;;;;;5.10;99.90;;;4.68;100.00;102326.31;4930818;29;19927;-76
2022/01/23 05:48:04;;;;;;;;;;;6.30;99.90;;;4.69;100.00;102317.66;4933932;29;19949;-75
2022/01/23 05:50:50;;;;;;;;;;;5.10;99.90;;;4.71;100.00;102331.63;4947221;28;20514;-75
2022/01/23 05:53:26;;;;;;;;;;;5.50;99.90;;;4.66;100.00;102343.63;4946718;29;19969;-75
2022/01/23 05:56:11;;;;;;;;;;;5.10;99.90;;;4.67;100.00;102337.59;4946850;29;19938;-75
2022/01/23 05:58:54;;;;;;;;;;;5.20;99.90;;;4.65;100.00;102342.75;4946951;29;19930;-75
2022/01/23 06:01:24;;;;;;;;;;;5.10;99.90;;;4.67;100.00;102345.41;4930988;29;19937;-75
2022/01/23 06:03:54;;;;;;;;;;;5.10;99.90;;;4.70;100.00;102348.13;4930792;29;19977;-75
2022/01/23 06:06:35;;;;;;;;;;;5.20;99.90;;;4.74;100.00;102341.28;4932208;29;19930;-75
2022/01/23 06:09:05;;;;;;;;;;;5.20;99.90;;;4.75;100.00;102341.31;4930368;29;20401;-75
2022/01/23 06:11:32;;;;;;;;;;;5.10;99.90;;;4.70;100.00;102352.47;4946067;28;19930;-75
2022/01/23 06:13:59;;;;;;;;;;;5.10;99.90;;;4.71;100.00;102355.09;4945729;28;19934;-76
2022/01/23 06:16:26;;;;;;;;;;;5.00;99.90;;;4.70;100.00;102352.47;4945981;29;19965;-76
2022/01/23 06:19:12;;;;;;;;;;;6.00;99.90;;;4.68;100.00;102352.41;4947568;29;20019;-76
2022/01/23 06:22:15;;;;;;;;;;;6.20;99.90;;;4.68;100.00;102357.59;4952230;28;19929;-75
2022/01/23 06:24:47;;;;;;;;;;;4.80;99.90;;;4.68;100.00;102358.50;4935356;28;19934;-75
2022/01/23 06:27:39;;;;;;;;;;;5.10;99.90;;;4.70;100.00;102358.53;4930362;28;19931;-75
2022/01/23 06:30:07;;;;;;;;;;;5.10;99.90;;;4.72;100.00;102359.47;4927231;28;20025;-75
2022/01/23 06:32:34;;;;;;;;;;;5.10;99.90;;;4.67;100.00;102348.03;4910907;29;20269;-76
2022/01/23 06:35:01;;;;;;;;;;;5.10;99.90;;;4.73;100.00;102358.63;4927254;28;20553;-74
2022/01/23 06:37:28;;;;;;;;;;;5.10;99.90;;;4.68;100.00;102368.03;4926808;28;19927;-75
2022/01/23 06:39:55;;;;;;;;;;;5.70;99.90;;;4.71;100.00;102367.25;4926679;29;19962;-74
2022/01/23 06:42:45;;;;;;;;;;;5.00;99.90;;;4.73;100.00;102368.19;4926388;28;19931;-74
2022/01/23 06:45:25;;;;;;;;;;;5.10;99.90;;;4.73;100.00;102362.97;4926747;29;19934;-75
2022/01/23 06:47:53;;;;;;;;;;;6.00;99.90;;;4.73;100.00;102366.47;4911275;28;19938;-74
2022/01/23 06:50:20;;;;;;;;;;;6.20;99.90;;;4.71;100.00;102365.53;4926502;28;19974;-74
2022/01/23 06:52:47;;;;;;;;;;;5.10;99.90;;;4.70;100.00;102374.19;4926402;28;20057;-74
2022/01/23 06:55:17;;;;;;;;;;;7.10;99.90;;;4.68;100.00;102371.56;4926732;28;19931;-74
2022/01/23 06:57:47;;;;;;;;;;;5.10;99.90;;;4.70;100.00;102368.97;4911454;29;19973;-75
2022/01/23 07:00:16;;;;;;;;;;;5.90;99.90;;;4.67;100.00;102374.09;4926213;28;19927;-74
2022/01/23 07:03:01;;;;;;;;;;;5.10;99.90;;;4.68;100.00;102379.38;4926436;29;20089;-74
2022/01/23 07:05:47;;;;;;;;;;;7.40;99.90;;;4.68;100.00;102376.75;4926053;29;19927;-75
2022/01/23 07:08:18;;;;;;;;;;;5.10;99.90;;;4.72;100.00;102382.94;4926874;28;19938;-74
2022/01/23 07:10:58;;;;;;;;;;;5.10;99.90;;;4.72;100.00;102384.69;4930590;29;19927;-74
2022/01/23 07:13:57;;;;;;;;;;;5.10;99.90;;;4.68;100.00;102387.19;4936186;29;20025;-75
2022/01/23 07:16:37;;;;;;;;;;;5.10;99.90;;;4.71;100.00;102394.22;4934404;29;19977;-75
2022/01/23 07:19:21;;;;;;;;;;;5.00;99.90;;;4.70;100.00;102391.56;4934782;28;20003;-76
2022/01/23 07:21:52;;;;;;;;;;;6.40;99.90;;;4.70;100.00;102396.78;4932899;28;20410;-74
2022/01/23 07:24:20;;;;;;;;;;;6.80;99.90;;;4.73;100.00;102408.19;4932315;29;19926;-75
2022/01/23 07:26:47;;;;;;;;;;;7.00;99.90;;;4.72;100.00;102403.81;4948513;29;20355;-76
2022/01/23 07:29:17;;;;;;;;;;;5.10;99.90;;;4.68;100.00;102409.75;4940961;28;19930;-74
2022/01/23 07:31:57;;;;;;;;;;;5.00;99.90;;;4.62;100.00;102402.63;4951952;28;19930;-75
2022/01/23 07:34:26;;;;;;;;;;;5.10;99.90;;;4.68;100.00;102418.50;4949959;28;20378;-74
2022/01/23 07:36:54;;;;;;;;;;;5.80;99.90;;;4.74;100.00;102423.00;4933053;28;19957;-74
2022/01/23 07:39:41;;;;;;;;;;;5.10;99.90;;;4.72;100.00;102419.44;4943116;28;19942;-74
2022/01/23 07:42:16;;;;;;;;;;;5.30;99.90;;;4.72;100.00;102416.84;4927499;29;20033;-76
2022/01/23 07:45:04;;;;;;;;;;;5.00;99.90;;;4.70;100.00;102410.69;4922093;28;19935;-76
2022/01/23 07:47:34;;;;;;;;;;;5.00;99.90;;;4.72;100.00;102418.59;4939438;28;19937;-76
2022/01/23 07:50:17;;;;;;;;;;;6.80;99.90;;;4.75;100.00;102423.91;4927120;29;20449;-75
2022/01/23 07:53:10;;;;;;;;;;;5.10;99.90;;;4.76;100.00;102425.66;4984129;28;20017;-75
2022/01/23 07:55:55;;;;;;;;;;;5.20;99.90;;;4.73;100.00;102413.41;4948397;28;19933;-76
2022/01/23 07:58:37;;;;;;;;;;;5.80;99.90;;;4.77;100.00;102417.00;4949329;29;20000;-76
2022/01/23 08:01:22;;;;;;;;;;;5.80;99.90;;;4.76;100.00;102421.34;4963543;28;19937;-75
2022/01/23 08:04:09;;;;;;;;;;;5.50;99.90;;;4.76;100.00;102420.44;4949280;29;19927;-75
2022/01/23 08:06:44;;;;;;;;;;;5.20;99.90;;;4.78;100.00;102426.59;4949445;28;19930;-76
2022/01/23 08:09:35;;;;;;;;;;;5.10;99.90;;;4.79;100.00;102429.28;4954911;28;19977;-76
2022/01/23 08:12:06;;;;;;;;;;;5.10;99.90;;;4.78;100.00;102431.81;4934607;28;19930;-76
2022/01/23 08:14:33;;;;;;;;;;;5.10;99.90;;;4.80;100.00;102437.97;4933597;29;19927;-76
2022/01/23 08:17:00;;;;;;;;;;;5.20;99.90;;;4.80;100.00;102432.75;4950741;28;20395;-76
2022/01/23 08:19:27;;;;;;;;;;;5.90;99.90;;;4.83;100.00;102438.97;4948829;29;19930;-76
2022/01/23 08:21:54;;;;;;;;;;;7.40;99.90;;;4.86;100.00;102447.72;4933859;29;19932;-76
2022/01/23 08:24:21;;;;;;;;;;;5.70;99.90;;;4.85;100.00;102449.47;4948868;29;20001;-76
2022/01/23 08:26:48;;;;;;;;;;;5.20;99.90;;;4.81;100.00;102443.25;4933858;29;19954;-75
2022/01/23 08:29:15;;;;;;;;;;;5.40;99.90;;;4.86;100.00;102450.31;4961047;28;20044;-77
2022/01/23 08:31:45;;;;;;;;;;;5.90;99.90;;;4.85;100.00;102445.94;4968603;28;19930;-76
2022/01/23 08:34:12;;;;;;;;;;;5.10;99.90;;;4.82;100.00;102445.00;4969958;28;19930;-76
2022/01/23 08:36:39;;;;;;;;;;;6.50;99.90;;;4.86;100.00;102451.22;4952703;28;19930;-76
2022/01/23 08:39:06;;;;;;;;;;;5.50;99.90;;;4.87;100.00;102449.50;4952316;28;19972;-76
2022/01/23 08:41:49;;;;;;;;;;;5.20;99.90;;;4.90;100.00;102446.97;4968686;28;19936;-76
2022/01/23 08:44:18;;;;;;;;;;;5.20;99.90;;;4.92;100.00;102446.19;4968305;28;19926;-76
2022/01/23 08:46:45;;;;;;;;;;;5.30;99.90;;;4.91;100.00;102447.03;4953114;28;19933;-76
2022/01/23 08:49:12;;;;;;;;;;;5.30;99.90;;;4.93;100.00;102450.59;4969856;28;19930;-76
2022/01/23 08:51:39;;;;;;;;;;;5.30;99.90;;;4.98;100.00;102453.34;4936304;28;20013;-76
2022/01/23 08:54:07;;;;;;;;;;;5.60;99.90;;;4.96;100.00;102440.25;4968164;28;19952;-76
2022/01/23 08:56:34;;;;;;;;;;;6.10;99.90;;;5.00;100.00;102448.19;4968369;28;20024;-75
2022/01/23 08:59:01;;;;;;;;;;;5.60;99.90;;;4.97;100.00;102444.63;4952916;28;19931;-77
2022/01/23 09:01:29;;;;;;;;;;;5.40;99.90;;;4.99;100.00;102447.28;4935480;29;20429;-76
2022/01/23 09:03:56;;;;;;;;;;;5.40;99.90;;;5.04;100.00;102450.06;4934892;29;19930;-75
2022/01/23 09:06:23;;;;;;;;;;;5.40;99.90;;;4.99;100.00;102447.28;4955050;28;19930;-77
2022/01/23 09:08:52;;;;;;;;;;;5.70;99.90;;;5.08;100.00;102451.91;4947040;29;20437;-77
2022/01/23 09:14:10;;;;;;;;;;;7.40;99.90;;;5.16;100.00;102454.78;4948130;28;20295;-77
2022/01/23 09:16:44;;;;;;;;;;;6.70;99.90;;;5.19;100.00;102452.25;4916455;29;20541;-77
2022/01/23 09:19:12;;;;;;;;;;;5.50;99.90;;;5.25;100.00;102457.69;4946831;29;19945;-77
2022/01/23 09:21:39;;;;;;;;;;;5.60;99.90;;;5.25;100.00;102455.94;4930696;29;20011;-77
2022/01/23 09:24:07;;;;;;;;;;;5.50;99.90;;;5.31;100.00;102463.09;4972980;28;19930;-76
2022/01/23 09:26:36;;;;;;;;;;;5.60;99.90;;;5.35;100.00;102454.50;4946715;29;19976;-77
2022/01/23 09:29:13;;;;;;;;;;;7.40;99.90;;;5.37;100.00;102458.06;4967573;28;19926;-77
2022/01/23 09:31:50;;;;;;;;;;;5.70;99.90;;;5.33;100.00;102450.97;4945597;28;20466;-76
2022/01/23 09:34:23;;;;;;;;;;;5.70;99.90;;;5.43;100.00;102446.03;4946446;29;19937;-77
2022/01/23 09:37:09;;;;;;;;;;;7.60;99.90;;;5.43;100.00;102444.31;4931098;29;19996;-77
2022/01/23 09:39:37;;;;;;;;;;;6.00;99.90;;;5.49;100.00;102439.28;4902039;28;19931;-76
2022/01/23 09:42:06;;;;;;;;;;;7.10;99.90;;;5.56;100.00;102442.06;4910846;29;20101;-77
2022/01/23 09:44:41;;;;;;;;;;;5.90;99.90;;;5.61;100.00;102445.69;4910500;29;19969;-76
2022/01/23 09:47:28;;;;;;;;;;;5.90;99.90;;;5.64;100.00;102445.81;4915427;28;19996;-76
2022/01/23 09:49:57;;;;;;;;;;;8.40;99.90;;;5.59;100.00;102445.66;4910663;29;20442;-76
2022/01/23 09:52:29;;;;;;;;;;;5.90;99.90;;;5.62;100.00;102453.59;4894901;28;19931;-76
2022/01/23 09:54:59;;;;;;;;;;;7.80;99.90;;;5.70;100.00;102447.69;4879260;29;19931;-77
2022/01/23 09:57:30;;;;;;;;;;;6.00;99.90;;;5.72;100.00;102446.03;4895528;29;19930;-76
2022/01/23 09:59:59;;;;;;;;;;;6.00;99.90;;;5.77;100.00;102449.66;4895018;29;19930;-76
2022/01/23 10:02:27;;;;;;;;;;;6.60;99.90;;;5.82;100.00;102446.34;4910400;29;19937;-76
2022/01/23 10:05:02;;;;;;;;;;;6.10;99.90;;;5.84;100.00;102437.69;4911397;29;20034;-77
2022/01/23 10:07:29;;;;;;;;;;;6.70;99.90;;;5.88;100.00;102442.13;4900797;28;20391;-76
2022/01/23 10:10:09;;;;;;;;;;;6.20;99.90;;;5.88;100.00;102442.13;4945079;29;19930;-76
2022/01/23 10:12:47;;;;;;;;;;;6.20;99.90;;;5.94;100.00;102440.59;4930657;28;19945;-76
2022/01/23 10:15:14;;;;;;;;;;;6.30;99.90;;;5.99;100.00;102438.13;4943385;29;19930;-76
2022/01/23 10:17:41;;;;;;;;;;;6.30;99.90;;;6.02;100.00;102432.13;4946265;29;19934;-76
2022/01/23 10:20:11;;;;;;;;;;;6.80;99.90;;;6.04;100.00;102425.22;4930726;29;19927;-76
2022/01/23 10:22:41;;;;;;;;;;;6.40;99.90;;;6.12;100.00;102428.03;4930412;29;19930;-77
2022/01/23 10:25:14;;;;;;;;;;;7.10;99.90;;;6.16;100.00;102429.88;4946629;29;19927;-76
2022/01/23 10:27:58;;;;;;;;;;;6.50;99.90;;;6.25;100.00;102427.53;4935970;29;19934;-76
2022/01/23 10:30:29;;;;;;;;;;;6.50;99.90;;;6.19;100.00;102430.88;4962935;29;19931;-77
2022/01/23 10:33:20;;;;;;;;;;;7.40;99.90;;;6.23;100.00;102429.19;4931241;29;19930;-77
2022/01/23 10:36:10;;;;;;;;;;;6.50;99.90;;;6.34;100.00;102421.66;4931396;29;19930;-77
2022/01/23 10:38:40;;;;;;;;;;;6.60;99.90;;;6.39;100.00;102425.28;4955382;28;20020;-78
2022/01/23 10:50:01;;;;;;;;;;;6.70;99.90;;;6.44;100.00;102423.66;4939937;29;20346;-77
2022/01/23 10:52:37;;;;;;;;;;;6.70;99.90;;;6.49;100.00;102418.56;4947428;28;20029;-77
2022/01/23 10:55:22;;;;;;;;;;;8.20;99.90;;;6.51;100.00;102417.75;4947601;28;19966;-76
2022/01/23 10:57:54;;;;;;;;;;;6.90;99.90;;;6.58;100.00;102423.13;4945770;29;19933;-77
2022/01/23 11:00:36;;;;;;;;;;;7.00;99.90;;;6.58;100.00;102417.91;4946058;28;20465;-77
2022/01/23 11:03:18;;;;;;;;;;;6.90;99.90;;;6.56;100.00;102419.59;4931481;29;20134;-76
2022/01/23 11:05:48;;;;;;;;;;;6.90;99.90;;;6.64;100.00;102420.69;4947673;28;19931;-78
2022/01/23 11:08:26;;;;;;;;;;;6.90;99.90;;;6.72;100.00;102421.75;4946037;29;19933;-78
2022/01/23 11:10:59;;;;;;;;;;;7.00;99.90;;;6.79;100.00;102418.47;4990359;28;20049;-78
2022/01/23 11:19:27;;;;;;;;;;;7.10;99.90;;;6.86;100.00;102414.22;4946432;29;19965;-78
2022/01/23 11:21:54;;;;;;;;;;;7.10;99.90;;;6.91;100.00;102417.88;4977792;28;20021;-78
2022/01/23 11:24:22;;;;;;;;;;;7.20;99.90;;;6.89;100.00;102430.03;4961980;28;19934;-77
2022/01/23 11:27:00;;;;;;;;;;;7.30;99.90;;;6.92;100.00;102417.03;4963145;28;19926;-77
2022/01/23 11:29:27;;;;;;;;;;;9.30;99.90;;;6.94;100.00;102417.03;4981877;28;20677;-77
2022/01/23 11:31:54;;;;;;;;;;;7.40;99.90;;;6.96;100.00;102412.75;4961828;28;19930;-78
2022/01/23 11:34:23;;;;;;;;;;;8.50;99.90;;;6.93;100.00;102418.78;4951947;28;19961;-78
2022/01/23 11:36:51;;;;;;;;;;;7.30;99.90;;;7.01;100.00;102418.97;4967351;28;19973;-78
2022/01/23 11:39:40;;;;;;;;;;;8.20;99.90;;;7.03;100.00;102416.41;4950477;28;19927;-76
2022/01/23 11:56:43;;;;;;;;;;;7.40;99.90;;;7.11;100.00;102396.50;4951413;28;19984;-77
2022/01/23 11:59:33;;;;;;;;;;;7.40;99.90;;;7.15;100.00;102392.22;4950406;28;19981;-78
2022/01/23 12:02:10;;;;;;;;;;;8.60;99.90;;;7.22;100.00;102392.41;4949916;28;19976;-78
2022/01/23 12:04:43;;;;;;;;;;;7.40;99.90;;;7.17;100.00;102391.41;4948445;28;20033;-78
2022/01/23 12:07:15;;;;;;;;;;;8.30;99.90;;;7.24;100.00;102387.19;4934667;29;20025;-77
2022/01/23 12:10:16;;;;;;;;;;;7.50;99.90;;;7.28;100.00;102391.66;4949192;29;19970;-78
2022/01/23 12:12:49;;;;;;;;;;;7.60;99.90;;;7.33;100.00;102382.16;4922833;28;19931;-78
2022/01/23 12:18:22;;;;;;;;;;;7.60;99.90;;;7.32;100.00;102383.03;4949749;28;19930;-78
2022/01/23 12:20:51;;;;;;;;;;;7.70;99.90;;;7.38;100.00;102379.66;4935864;28;19937;-77
2022/01/23 12:23:19;;;;;;;;;;;7.70;99.90;;;7.36;100.00;102376.13;4936780;29;19950;-78
2022/01/23 12:25:52;;;;;;;;;;;7.60;99.90;;;7.29;100.00;102372.47;4923950;29;19961;-77
2022/01/23 12:28:31;;;;;;;;;;;7.70;99.90;;;7.33;100.00;102379.56;4915916;29;19935;-78
2022/01/23 12:31:26;;;;;;;;;;;7.60;99.90;;;7.30;100.00;102378.59;4932318;29;19937;-78
2022/01/23 12:34:00;;;;;;;;;;;7.60;99.90;;;7.31;100.00;102373.41;4945560;29;19930;-78
2022/01/23 12:36:32;;;;;;;;;;;7.60;99.90;;;7.34;100.00;102373.47;4936720;29;20382;-78
2022/01/23 12:39:20;;;;;;;;;;;7.60;99.90;;;7.43;100.00;102372.78;4939840;29;19922;-77
2022/01/23 12:41:47;;;;;;;;;;;7.60;99.90;;;7.49;100.00;102377.25;4952702;28;19973;-78
2022/01/23 12:44:23;;;;;;;;;;;7.70;99.90;;;7.48;100.00;102365.00;4956323;28;20414;-79
2022/01/23 12:46:53;;;;;;;;;;;7.70;99.90;;;7.48;100.00;102367.63;4936379;29;19926;-78
2022/01/23 12:49:30;;;;;;;;;;;7.70;99.90;;;7.49;100.00;102359.81;4953597;29;19931;-78
2022/01/23 12:52:09;;;;;;;;;;;7.80;99.90;;;7.45;100.00;102359.72;4951673;28;19930;-78
2022/01/23 12:54:51;;;;;;;;;;;7.80;99.90;;;7.55;100.00;102355.56;4951664;28;19994;-76
2022/01/23 12:57:40;;;;;;;;;;;7.70;99.90;;;7.52;100.00;102354.63;4953159;29;19938;-78
2022/01/23 13:00:08;;;;;;;;;;;7.80;99.90;;;7.60;100.00;102354.78;4963064;28;19926;-78
2022/01/23 13:02:46;;;;;;;;;;;7.90;99.90;;;7.56;100.00;102355.56;4955679;29;20054;-78
2022/01/23 13:05:15;;;;;;;;;;;7.90;99.90;;;7.58;100.00;102352.97;4955168;29;19937;-78
2022/01/23 13:32:33;;;;;;;;;;;9.20;99.90;;;9.71;100.00;102317.84;4926712;29;19930;-78
2022/01/23 13:35:07;;;;;;;;;;;9.80;99.90;;;10.35;100.00;102313.16;4940079;29;19929;-78
2022/01/23 13:37:40;;;;;;;;;;;10.30;99.90;;;10.74;100.00;102314.38;4939390;29;20236;-78
2022/01/23 13:40:19;;;;;;;;;;;11.00;99.90;;;11.29;100.00;102307.59;4939253;29;20250;-78
2022/01/23 13:54:15;;;;;;;;;;;12.20;97.00;;;11.00;100.00;102304.84;4958928;28;19994;-78
2022/01/23 13:59:51;;;;;;;;;;;12.00;98.30;;;12.13;100.00;102307.84;4933192;29;20057;-79
2022/01/23 14:02:25;;;;;;;;;;;12.40;97.70;;;11.77;100.00;102299.84;4919358;29;19931;-79
2022/01/23 14:05:17;;;;;;;;;;;12.50;96.80;;;11.28;100.00;102302.34;4932095;29;20288;-78
2022/01/23 14:07:51;;;;;;;;;;;12.40;96.10;;;11.03;100.00;102305.75;4934247;29;19994;-76
2022/01/23 14:10:27;;;;;;;;;;;12.10;96.00;;;10.63;100.00;102302.88;4929264;29;19930;-77
2022/01/23 14:13:05;;;;;;;;;;;11.70;96.00;;;10.32;100.00;102305.25;4939947;29;19930;-77
2022/01/23 14:15:32;;;;;;;;;;;11.50;96.10;;;10.11;100.00;102291.03;4950451;29;20654;-77
2022/01/23 14:18:09;;;;;;;;;;;11.30;95.50;;;9.88;100.00;102296.09;4951731;28;19931;-77
2022/01/23 14:20:54;;;;;;;;;;;11.00;95.50;;;9.61;100.00;102303.72;4934932;29;19966;-77
2022/01/23 14:23:22;;;;;;;;;;;10.70;95.50;;;9.48;100.00;102309.69;4950540;28;19934;-78
2022/01/23 14:25:58;;;;;;;;;;;10.50;96.10;;;9.34;100.00;102310.41;4947733;29;20335;-78
2022/01/23 14:28:35;;;;;;;;;;;10.30;96.50;;;9.31;100.00;102304.22;4932366;29;19930;-78
2022/01/23 14:31:14;;;;;;;;;;;10.30;97.10;;;9.26;100.00;102301.53;4930960;28;20558;-78
2022/01/23 14:33:59;;;;;;;;;;;10.10;97.20;;;9.17;100.00;102312.81;4948639;29;20292;-78
2022/01/23 14:36:31;;;;;;;;;;;9.90;97.40;;;9.09;100.00;102309.22;4964195;28;19930;-78
2022/01/23 14:39:01;;;;;;;;;;;9.80;97.60;;;9.15;100.00;102311.03;4966065;28;20018;-78
2022/01/23 14:41:31;;;;;;;;;;;9.70;98.20;;;9.00;100.00;102303.81;4968046;28;19933;-78
2022/01/23 14:43:58;;;;;;;;;;;9.70;98.50;;;8.92;100.00;102303.72;4952042;28;19945;-80
2022/01/23 14:46:25;;;;;;;;;;;9.50;98.80;;;8.87;100.00;102308.03;4952513;28;20005;-79
2022/01/23 14:49:12;;;;;;;;;;;9.80;99.00;;;8.89;100.00;102312.41;4954870;28;19926;-77
2022/01/23 14:51:39;;;;;;;;;;;9.50;99.30;;;8.97;100.00;102304.66;4969255;28;20045;-78
2022/01/23 14:54:06;;;;;;;;;;;9.40;99.40;;;8.90;100.00;102303.72;4930822;28;20370;-78
2022/01/23 14:56:36;;;;;;;;;;;9.30;99.40;;;8.85;100.00;102308.00;4945315;29;19927;-78
2022/01/23 14:59:07;;;;;;;;;;;10.50;99.90;;;8.65;100.00;102311.22;4947818;29;19927;-78
2022/01/23 15:01:35;;;;;;;;;;;9.20;99.40;;;8.66;100.00;102309.44;4944295;28;19950;-78
2022/01/23 15:04:20;;;;;;;;;;;9.10;99.60;;;8.64;100.00;102311.19;4931845;28;19930;-76
2022/01/23 15:06:54;;;;;;;;;;;9.00;99.80;;;8.59;100.00;102299.75;4918261;28;20034;-76
2022/01/23 15:09:23;;;;;;;;;;;9.00;99.80;;;8.54;100.00;102299.66;4927109;29;20484;-78
2022/01/23 15:11:50;;;;;;;;;;;9.80;99.90;;;8.60;100.00;102309.38;4929938;28;19934;-75
2022/01/23 15:14:18;;;;;;;;;;;9.10;99.90;;;8.53;100.00;102305.78;4928650;29;20391;-77
2022/01/23 15:16:45;;;;;;;;;;;8.90;99.90;;;8.50;100.00;102303.97;4911185;29;19934;-77
2022/01/23 15:19:13;;;;;;;;;;;8.90;99.90;;;8.47;100.00;102305.66;4943301;28;20402;-78
2022/01/23 15:21:40;;;;;;;;;;;9.70;99.90;;;8.49;100.00;102306.56;4945914;28;19933;-78
2022/01/23 15:24:07;;;;;;;;;;;8.80;99.90;;;8.43;100.00;102303.81;4932024;29;19926;-77
2022/01/23 15:26:35;;;;;;;;;;;9.10;99.90;;;8.45;100.00;102307.38;4946065;29;20472;-78